Time;durP1;ratioP1;P1;durP2;ratioP2;P2;SDS_P1;SDS_P2;PMS_P1;PMS_P2;Temp;Humidity;BMP_temperature;BMP_pressure;BME280_temperature;BME280_humidity;BME280_pressure;Samples;Min_cycle;Max_cycle;Signal;HPM_P1;HPM_P2
2022/08/25 00:01:59;;;;;;;0.00;0.00;;;;;;;17.17;52.43;101301.03;7361589;19;20044;-69
2022/08/25 00:04:26;;;;;;;0.00;0.00;;;;;;;17.11;53.82;101302.13;7357013;19;20624;-69
2022/08/25 00:06:52;;;;;;;0.00;0.00;;;;;;;17.07;53.88;101302.31;7361718;19;20033;-69
2022/08/25 00:09:20;;;;;;;0.00;0.00;;;;;;;17.04;53.40;101305.09;7361121;19;20023;-69
2022/08/25 00:11:48;;;;;;;0.00;0.00;;;;;;;17.00;53.33;101303.50;7359352;19;20017;-69
2022/08/25 00:14:18;;;;;;;0.00;0.00;;;;;;;16.95;53.88;101300.19;7361184;19;20426;-70
2022/08/25 00:16:44;;;;;;;0.00;0.00;;;;;;;16.89;54.32;101301.28;7360692;19;20019;-69
2022/08/25 00:19:16;;;;;;;0.00;0.00;;;;;;;16.91;53.95;101306.47;7359783;19;20019;-69
2022/08/25 00:21:44;;;;;;;0.00;0.00;;;;;;;16.84;54.36;101309.38;7364958;19;21722;-70
2022/08/25 00:24:10;;;;;;;0.00;0.00;;;;;;;16.72;54.52;101296.63;7364366;19;20019;-69
2022/08/25 00:26:41;;;;;;;0.00;0.00;;;;;;;16.78;54.54;101309.63;7366922;19;20010;-69
2022/08/25 00:29:08;;;;;;;0.00;0.00;;;;;;;16.73;54.43;101306.28;7368022;19;20872;-70
2022/08/25 00:31:33;;;;;;;0.00;0.00;;;;;;;16.64;55.02;101300.47;7367314;19;20787;-68
2022/08/25 00:34:00;;;;;;;0.00;0.00;;;;;;;16.62;55.28;101308.44;7364865;19;20013;-70
2022/08/25 00:36:27;;;;;;;0.00;0.00;;;;;;;16.60;55.59;101305.00;7364304;19;20072;-69
2022/08/25 00:38:52;;;;;;;0.00;0.00;;;;;;;16.49;55.27;101296.66;7367517;19;20029;-69
2022/08/25 00:41:20;;;;;;;0.00;0.00;;;;;;;16.42;55.26;101292.50;7365930;19;20632;-68
2022/08/25 00:43:50;;;;;;;0.00;0.00;;;;;;;16.50;55.66;101314.19;7366420;19;20039;-68
2022/08/25 00:46:20;;;;;;;0.00;0.00;;;;;;;16.46;55.17;101308.16;7363807;19;20007;-69
2022/08/25 00:48:50;;;;;;;0.00;0.00;;;;;;;16.42;55.28;101305.69;7364856;19;20111;-70
2022/08/25 00:51:22;;;;;;;0.00;0.00;;;;;;;16.36;55.67;101306.78;7364909;19;20721;-70
2022/08/25 00:53:49;;;;;;;0.00;0.00;;;;;;;16.34;55.57;101309.47;7364083;19;20371;-69
2022/08/25 00:56:14;;;;;;;0.00;0.00;;;;;;;16.19;55.81;101294.22;7366050;19;20055;-70
2022/08/25 00:58:41;;;;;;;0.00;0.00;;;;;;;16.29;56.26;101311.41;7364355;19;20023;-69
2022/08/25 01:01:07;;;;;;;0.00;0.00;;;;;;;16.29;56.43;101310.56;7367490;19;20493;-70
2022/08/25 01:03:32;;;;;;;0.00;0.00;;;;;;;16.24;56.20;101302.81;7364571;19;20038;-69
2022/08/25 01:06:00;;;;;;;0.00;0.00;;;;;;;16.16;56.07;101291.69;7365975;19;20007;-69
2022/08/25 01:08:28;;;;;;;0.00;0.00;;;;;;;16.17;56.45;101296.06;7362841;19;20007;-69
2022/08/25 01:10:55;;;;;;;;;;;;;;;16.28;52.86;101314.97;7365597;19;20014;-69
2022/08/25 01:13:53;;;;;;;0.00;0.00;;;;;;;16.26;55.99;101316.78;7362024;19;19915;-69
2022/08/25 01:16:19;;;;;;;0.00;0.00;;;;;;;16.19;56.34;101314.44;7261928;19;2004310;-69
2022/08/25 01:18:51;;;;;;;0.00;0.00;;;;;;;16.14;55.35;101306.72;7367282;19;20003;-70
2022/08/25 01:21:20;;;;;;;0.00;0.00;;;;;;;16.19;56.18;101319.72;7364593;19;20007;-69
2022/08/25 01:23:48;;;;;;;0.00;0.00;;;;;;;16.13;56.07;101326.06;7364237;19;20721;-69
2022/08/25 01:26:15;;;;;;;0.00;0.00;;;;;;;16.11;56.75;101329.66;7366436;19;20031;-70
2022/08/25 01:29:19;;;;;;;0.00;0.00;;;;;;;16.00;56.65;101324.78;7365234;19;20069;-70
2022/08/25 01:31:28;;;;;;;0.00;0.00;;;;;;;16.06;57.16;101335.09;7363662;19;20014;-70
2022/08/25 01:33:53;;;;;;;0.00;0.00;;;;;;;16.00;56.74;101327.41;7366345;19;20027;-68
2022/08/25 01:36:20;;;;;;;0.00;0.00;;;;;;;15.99;57.30;101333.59;7365762;19;20050;-69
2022/08/25 01:38:46;;;;;;;0.00;0.00;;;;;;;15.96;56.51;101333.69;7364222;19;20007;-69
2022/08/25 01:41:11;;;;;;;0.03;0.03;;;;;;;15.95;56.24;101337.25;7365260;19;20006;-69
2022/08/25 01:43:37;;;;;;;0.00;0.00;;;;;;;15.95;56.51;101337.25;7364629;19;20002;-70
2022/08/25 01:46:03;;;;;;;0.00;0.00;;;;;;;15.95;56.84;101331.97;7364335;19;20113;-69
2022/08/25 01:48:28;;;;;;;0.00;0.00;;;;;;;15.94;56.75;101341.66;7363670;19;20006;-69
2022/08/25 01:50:54;;;;;;;0.00;0.00;;;;;;;15.94;56.98;101343.44;7366595;19;20031;-69
2022/08/25 01:53:29;;;;;;;0.00;0.00;;;;;;;15.95;55.54;101342.53;7362365;19;20885;-69
2022/08/25 01:56:00;;;;;;;0.00;0.00;;;;;;;15.81;57.68;101324.53;7362953;19;20026;-69
2022/08/25 01:58:32;;;;;;;0.00;0.00;;;;;;;15.90;56.62;101333.91;7354496;19;20019;-69
2022/08/25 02:01:00;;;;;;;0.00;0.00;;;;;;;15.57;57.36;101284.09;7363368;19;20006;-69
2022/08/25 02:03:26;;;;;;;0.00;0.00;;;;;;;15.85;57.71;101333.22;7361086;19;20619;-70
2022/08/25 02:05:55;;;;;;;0.00;0.00;;;;;;;15.81;57.56;101335.97;7362652;19;20097;-68
2022/08/25 02:08:22;;;;;;;0.00;0.00;;;;;;;15.73;57.24;101326.59;7361665;19;20102;-70
2022/08/25 02:10:48;;;;;;;0.00;0.00;;;;;;;15.75;57.83;101328.25;7364510;19;20017;-69
2022/08/25 02:13:14;;;;;;;0.00;0.00;;;;;;;15.72;58.29;101331.00;7356157;19;20034;-69
2022/08/25 02:15:45;;;;;;;0.00;0.00;;;;;;;15.71;57.38;101329.31;7361535;19;20041;-69
2022/08/25 02:18:11;;;;;;;0.00;0.00;;;;;;;15.67;58.01;101338.22;7360369;19;20007;-69
2022/08/25 02:20:36;;;;;;;0.00;0.00;;;;;;;15.63;58.77;101341.84;7362640;19;20032;-70
2022/08/25 02:23:03;;;;;;;0.00;0.00;;;;;;;15.55;58.26;101328.03;7358089;19;20025;-70
2022/08/25 02:25:31;;;;;;;0.00;0.00;;;;;;;15.57;58.70;101347.28;7363346;19;20031;-68
2022/08/25 02:27:57;;;;;;;0.00;0.00;;;;;;;15.53;58.76;101335.13;7358132;19;20019;-69
2022/08/25 02:30:22;;;;;;;0.00;0.00;;;;;;;15.53;58.78;101337.78;7363446;19;20006;-70
2022/08/25 02:32:48;;;;;;;0.00;0.00;;;;;;;15.50;58.96;101333.44;7357539;19;21110;-70
2022/08/25 02:35:13;;;;;;;0.00;0.00;;;;;;;15.49;58.30;101328.25;7361172;19;20011;-70
2022/08/25 02:37:39;;;;;;;0.00;0.00;;;;;;;15.40;58.79;101315.38;7360153;19;20109;-69
2022/08/25 02:40:05;;;;;;;0.00;0.00;;;;;;;15.44;58.49;101335.44;7360980;19;20028;-70
2022/08/25 02:42:30;;;;;;;0.00;0.00;;;;;;;15.46;59.43;101339.75;7358652;19;20007;-69
2022/08/25 02:44:56;;;;;;;0.00;0.00;;;;;;;15.45;59.34;101337.16;7362412;19;20043;-70
2022/08/25 02:47:21;;;;;;;0.00;0.00;;;;;;;15.44;59.92;101345.97;7358863;19;20006;-69
2022/08/25 02:49:47;;;;;;;0.00;0.00;;;;;;;15.42;59.62;101342.53;7359979;19;20010;-69
2022/08/25 02:52:13;;;;;;;0.00;0.00;;;;;;;15.31;59.76;101327.09;7357685;19;20015;-69
2022/08/25 02:54:39;;;;;;;0.00;0.00;;;;;;;15.39;60.02;101347.88;7359991;19;20508;-69
2022/08/25 02:57:07;;;;;;;0.10;0.10;;;;;;;15.36;59.73;101348.84;7362023;19;20014;-69
2022/08/25 02:59:34;;;;;;;0.00;0.00;;;;;;;15.35;60.58;101341.00;7357895;19;20478;-69
2022/08/25 03:02:00;;;;;;;0.00;0.00;;;;;;;15.32;60.33;101350.72;7354993;19;20038;-69
2022/08/25 03:04:26;;;;;;;0.00;0.00;;;;;;;15.31;60.71;101349.00;7350486;19;20372;-69
2022/08/25 03:06:51;;;;;;;0.00;0.00;;;;;;;15.18;60.78;101334.50;7361935;19;20018;-70
2022/08/25 03:09:16;;;;;;;0.00;0.00;;;;;;;15.23;60.20;101348.38;7362239;19;20025;-70
2022/08/25 03:11:44;;;;;;;0.00;0.00;;;;;;;15.26;60.65;101356.19;7368119;19;20378;-70
2022/08/25 03:14:10;;;;;;;0.00;0.00;;;;;;;15.24;59.94;101359.75;7366135;19;20010;-69
2022/08/25 03:16:37;;;;;;;0.00;0.00;;;;;;;15.23;60.41;101350.16;7369263;19;20875;-68
2022/08/25 03:19:02;;;;;;;0.00;0.00;;;;;;;15.21;60.62;101355.47;7359739;19;20010;-70
2022/08/25 03:21:29;;;;;;;0.00;0.00;;;;;;;15.19;60.59;101351.16;7366287;19;20020;-70
2022/08/25 03:23:55;;;;;;;0.00;0.00;;;;;;;15.18;60.75;101352.06;7366728;19;20037;-70
2022/08/25 03:29:07;;;;;;;0.00;0.00;;;;;;;15.10;60.88;101341.75;7368489;19;20022;-70
2022/08/25 03:31:33;;;;;;;0.00;0.00;;;;;;;15.12;61.22;101355.75;7368168;19;20031;-69
2022/08/25 03:33:59;;;;;;;0.00;0.00;;;;;;;15.10;61.17;101352.28;7369675;19;20487;-69
2022/08/25 03:36:26;;;;;;;0.00;0.00;;;;;;;15.09;61.67;101355.81;7368308;19;20031;-69
2022/08/25 03:38:52;;;;;;;0.00;0.00;;;;;;;15.07;61.54;101352.41;7371183;19;20014;-69
2022/08/25 03:41:21;;;;;;;0.00;0.00;;;;;;;15.08;61.50;101348.84;7367017;19;20515;-70
2022/08/25 03:43:47;;;;;;;0.00;0.00;;;;;;;15.01;61.86;101344.69;7367934;19;20099;-70
2022/08/25 03:46:21;;;;;;;0.00;0.00;;;;;;;15.07;61.29;101346.28;7368934;19;20021;-69
2022/08/25 03:48:47;;;;;;;0.00;0.00;;;;;;;15.01;61.73;101347.34;7368421;19;20025;-70
2022/08/25 03:51:28;;;;;;;0.00;0.00;;;;;;;14.95;60.99;101336.97;7367496;19;20030;-69
2022/08/25 03:53:54;;;;;;;0.00;0.00;;;;;;;15.00;61.78;101346.47;7363038;19;20017;-70
2022/08/25 03:56:19;;;;;;;0.00;0.00;;;;;;;15.00;61.90;101342.94;7366880;19;20015;-68
2022/08/25 03:58:46;;;;;;;0.00;0.00;;;;;;;14.97;62.28;101345.69;7368999;19;20026;-70
2022/08/25 04:01:12;;;;;;;0.00;0.00;;;;;;;14.95;62.18;101342.22;7369014;19;20026;-70
2022/08/25 04:03:38;;;;;;;0.00;0.00;;;;;;;14.96;62.28;101349.25;7367568;19;20014;-70
2022/08/25 04:06:05;;;;;;;0.00;0.00;;;;;;;14.93;62.20;101339.66;7368771;19;20675;-69
2022/08/25 04:08:30;;;;;;;0.00;0.00;;;;;;;14.94;62.53;101335.25;7366538;19;20533;-70
2022/08/25 04:10:55;;;;;;;0.00;0.00;;;;;;;14.92;62.19;101345.84;7369510;19;20435;-69
2022/08/25 04:13:21;;;;;;;0.00;0.00;;;;;;;14.87;62.72;101339.00;7366991;19;20010;-70
2022/08/25 04:15:47;;;;;;;0.00;0.00;;;;;;;14.74;62.54;101320.94;7367713;19;20009;-69
2022/08/25 04:18:13;;;;;;;0.00;0.00;;;;;;;14.77;62.53;101328.75;7367309;19;20435;-70
2022/08/25 04:20:42;;;;;;;0.00;0.00;;;;;;;14.85;62.64;101336.44;7368223;19;20003;-70
2022/08/25 04:23:09;;;;;;;0.00;0.00;;;;;;;14.83;62.99;101337.34;7364451;19;20014;-70
2022/08/25 04:25:38;;;;;;;0.00;0.00;;;;;;;14.69;62.87;101320.22;7366046;19;20039;-70
2022/08/25 04:28:06;;;;;;;0.00;0.00;;;;;;;14.79;63.35;101337.44;7366479;19;20027;-70
2022/08/25 04:30:31;;;;;;;;;;;;;;;14.72;58.02;101324.53;7368825;19;20003;-70
2022/08/25 04:32:57;;;;;;;0.00;0.00;;;;;;;14.76;62.47;101342.81;7365754;19;19946;-69
2022/08/25 04:35:23;;;;;;;0.00;0.00;;;;;;;14.74;63.17;101339.34;7368348;19;20540;-70
2022/08/25 04:37:48;;;;;;;0.00;0.00;;;;;;;14.58;63.17;101316.19;7366857;19;20006;-70
2022/08/25 04:40:13;;;;;;;0.00;0.00;;;;;;;14.70;63.48;101343.00;7366409;19;20757;-70
2022/08/25 04:42:39;;;;;;;0.00;0.00;;;;;;;14.55;63.88;101319.78;7367331;19;20007;-69
2022/08/25 04:45:05;;;;;;;0.00;0.00;;;;;;;14.67;63.35;101332.56;7366858;19;20013;-69
2022/08/25 04:47:34;;;;;;;0.00;0.00;;;;;;;14.68;63.81;101339.53;7366392;19;20730;-69
2022/08/25 04:50:00;;;;;;;0.00;0.00;;;;;;;14.56;63.81;101332.03;7368434;19;20007;-70
2022/08/25 04:52:25;;;;;;;0.00;0.00;;;;;;;14.66;63.85;101335.25;7365510;19;23817;-70
2022/08/25 04:54:51;;;;;;;0.00;0.00;;;;;;;14.64;64.29;101342.28;7366559;19;20021;-70
2022/08/25 04:57:16;;;;;;;0.00;0.00;;;;;;;14.64;64.22;101348.41;7365958;19;20048;-70
2022/08/25 04:59:41;;;;;;;0.00;0.00;;;;;;;14.48;64.37;101318.22;7366296;19;20022;-69
2022/08/25 05:02:07;;;;;;;0.00;0.00;;;;;;;14.62;64.38;101352.88;7363384;19;20017;-70
2022/08/25 05:04:37;;;;;;;0.00;0.00;;;;;;;14.57;63.92;101340.75;7366954;19;20525;-70
2022/08/25 05:07:03;;;;;;;0.00;0.00;;;;;;;14.63;64.20;101354.56;7365780;19;20022;-70
2022/08/25 05:09:29;;;;;;;0.00;0.00;;;;;;;14.57;64.15;101339.00;7364562;19;20466;-69
2022/08/25 05:11:54;;;;;;;0.00;0.00;;;;;;;14.52;63.99;101327.75;7365564;19;20022;-69
2022/08/25 05:14:21;;;;;;;0.00;0.00;;;;;;;14.58;64.44;101338.09;7366196;19;20087;-70
2022/08/25 05:16:47;;;;;;;0.00;0.00;;;;;;;14.47;64.38;101321.72;7365045;19;20523;-69
2022/08/25 05:19:13;;;;;;;0.00;0.00;;;;;;;14.53;64.24;101334.72;7367865;19;20031;-70
2022/08/25 05:21:40;;;;;;;0.00;0.00;;;;;;;14.52;63.98;101333.88;7364871;19;20089;-70
2022/08/25 05:24:06;;;;;;;0.00;0.00;;;;;;;14.54;64.31;101336.44;7365127;19;20027;-70
2022/08/25 05:26:33;;;;;;;0.00;0.00;;;;;;;14.43;63.90;101327.97;7363570;19;20006;-70
2022/08/25 05:29:00;;;;;;;0.00;0.00;;;;;;;14.54;63.87;101339.06;7367416;19;20029;-70
2022/08/25 05:31:26;;;;;;;0.00;0.00;;;;;;;14.51;63.72;101339.19;7362233;19;20045;-69
2022/08/25 05:33:53;;;;;;;0.00;0.00;;;;;;;14.50;64.21;101340.94;7366308;19;20093;-69
2022/08/25 05:36:20;;;;;;;0.00;0.00;;;;;;;14.49;64.33;101343.59;7364397;19;20018;-68
2022/08/25 05:38:46;;;;;;;0.00;0.00;;;;;;;14.47;64.25;101340.13;7366154;19;20062;-70
2022/08/25 05:41:20;;;;;;;0.00;0.00;;;;;;;14.38;62.72;101324.63;7365224;19;20860;-70
2022/08/25 05:43:47;;;;;;;0.00;0.00;;;;;;;14.43;64.26;101349.00;7365317;19;20010;-70
2022/08/25 05:46:14;;;;;;;0.00;0.00;;;;;;;14.42;64.01;101352.53;7364017;19;20006;-70
2022/08/25 05:48:40;;;;;;;0.00;0.00;;;;;;;14.35;64.19;101348.38;7366057;19;20018;-70
2022/08/25 05:51:09;;;;;;;0.00;0.00;;;;;;;14.40;64.62;101362.25;7363461;19;20025;-69
2022/08/25 05:53:35;;;;;;;0.00;0.00;;;;;;;14.40;64.53;101370.13;7365542;19;20023;-68
2022/08/25 05:56:01;;;;;;;0.00;0.00;;;;;;;14.37;64.73;101362.31;7362895;19;20007;-69
2022/08/25 05:58:28;;;;;;;0.00;0.00;;;;;;;14.27;64.43;101338.06;7353938;19;20017;-69
2022/08/25 06:00:54;;;;;;;0.00;0.00;;;;;;;14.26;64.21;101358.22;7363570;19;20014;-69
2022/08/25 06:03:20;;;;;;;0.00;0.00;;;;;;;14.31;64.55;101354.59;7357879;19;20059;-70
2022/08/25 06:05:45;;;;;;;0.00;0.00;;;;;;;14.36;64.38;101368.47;7360270;19;20011;-69
2022/08/25 06:08:14;;;;;;;0.00;0.00;;;;;;;14.39;64.28;101366.59;7361474;19;20526;-70
2022/08/25 06:10:40;;;;;;;0.00;0.00;;;;;;;14.38;64.80;101366.66;7360406;19;20006;-70
2022/08/25 06:13:06;;;;;;;0.00;0.00;;;;;;;14.40;64.92;101370.13;7359117;19;20014;-69
2022/08/25 06:15:32;;;;;;;0.00;0.00;;;;;;;14.25;64.71;101343.38;7360129;19;20349;-69
2022/08/25 06:18:00;;;;;;;0.00;0.00;;;;;;;14.32;64.97;101362.44;7360214;19;20023;-69
2022/08/25 06:20:26;;;;;;;;;;;;;;;14.48;61.39;101368.16;7362514;19;20027;-69
2022/08/25 06:22:53;;;;;;;0.00;0.00;;;;;;;14.41;64.45;101374.47;7361518;19;19929;-69
2022/08/25 06:25:21;;;;;;;0.00;0.00;;;;;;;14.48;64.60;101381.28;7362901;19;20026;-70
2022/08/25 06:27:47;;;;;;;0.00;0.00;;;;;;;14.41;64.51;101362.19;7360208;19;20044;-69
2022/08/25 06:30:17;;;;;;;0.00;0.00;;;;;;;14.51;64.12;101374.19;7363192;19;20007;-70
2022/08/25 06:32:44;;;;;;;0.00;0.00;;;;;;;14.45;64.65;101373.50;7357519;19;20830;-70
2022/08/25 06:35:12;;;;;;;0.00;0.00;;;;;;;14.53;64.53;101385.53;7363243;19;20018;-70
2022/08/25 06:37:39;;;;;;;0.00;0.00;;;;;;;14.49;65.09;101381.25;7356592;19;20018;-70
2022/08/25 06:40:06;;;;;;;0.00;0.00;;;;;;;14.61;64.78;101389.72;7358767;19;20027;-69
2022/08/25 06:42:31;;;;;;;0.00;0.00;;;;;;;14.57;65.35;101378.41;7358153;19;20021;-70
2022/08/25 06:44:57;;;;;;;0.00;0.00;;;;;;;14.59;65.49;101376.59;7359714;19;20010;-69
2022/08/25 06:47:22;;;;;;;0.00;0.00;;;;;;;14.73;65.23;101390.22;7361078;19;20014;-69
2022/08/25 06:49:47;;;;;;;0.08;0.08;;;;;;;14.84;64.92;101396.94;7359956;19;20018;-69
2022/08/25 06:52:13;;;;;;;0.00;0.00;;;;;;;14.91;65.21;101398.47;7360235;19;20018;-70
2022/08/25 06:54:39;;;;;;;0.00;0.00;;;;;;;14.92;65.39;101373.91;7358570;19;20019;-69
2022/08/25 06:57:06;;;;;;;0.00;0.00;;;;;;;15.05;65.19;101385.75;7360540;19;20016;-69
2022/08/25 06:59:35;;;;;;;0.00;0.00;;;;;;;15.12;65.30;101381.19;7356642;19;20377;-69
2022/08/25 07:02:01;;;;;;;0.00;0.00;;;;;;;15.08;64.80;101363.78;7357233;19;20093;-69
2022/08/25 07:04:27;;;;;;;0.00;0.00;;;;;;;15.23;64.77;101385.22;7357620;19;20044;-69
2022/08/25 07:06:52;;;;;;;0.00;0.00;;;;;;;15.29;64.99;101390.28;7360420;19;20015;-69
2022/08/25 07:09:17;;;;;;;0.00;0.00;;;;;;;15.33;64.61;101388.41;7358041;19;20018;-69
2022/08/25 07:11:46;;;;;;;0.00;0.00;;;;;;;15.27;64.52;101376.31;7360403;19;20051;-69
2022/08/25 07:14:13;;;;;;;0.00;0.00;;;;;;;15.44;64.36;101393.34;7359615;19;20010;-70
2022/08/25 07:16:40;;;;;;;0.00;0.00;;;;;;;15.39;64.43;101393.47;7358874;19;20025;-70
2022/08/25 07:19:06;;;;;;;0.10;0.10;;;;;;;15.48;64.52;101409.00;7354081;19;20930;-69
2022/08/25 07:21:33;;;;;;;0.00;0.00;;;;;;;15.54;64.79;101413.19;7355866;19;20097;-70
2022/08/25 07:24:02;;;;;;;0.00;0.00;;;;;;;15.59;64.66;101413.91;7356810;19;20775;-69
2022/08/25 07:26:35;;;;;;;0.00;0.00;;;;;;;15.68;64.99;101418.91;7357022;19;20111;-69
2022/08/25 07:29:06;;;;;;;0.00;0.00;;;;;;;15.79;64.31;101416.78;7360382;19;20389;-70
2022/08/25 07:31:32;;;;;;;0.00;0.00;;;;;;;15.74;64.64;101397.63;7359314;19;20043;-70
2022/08/25 07:36:42;;;;;;;0.00;0.00;;;;;;;15.94;64.42;101404.88;7353128;19;21669;-70
2022/08/25 07:39:07;;;;;;;0.00;0.00;;;;;;;16.00;64.16;101414.34;7356731;19;20011;-69
2022/08/25 07:41:36;;;;;;;0.00;0.00;;;;;;;16.18;64.19;101420.78;7356642;19;20010;-70
2022/08/25 07:44:02;;;;;;;0.00;0.00;;;;;;;16.26;63.95;101432.75;7355492;19;20014;-69
2022/08/25 07:46:28;;;;;;;0.00;0.00;;;;;;;16.35;63.92;101432.44;7357551;19;20344;-70
2022/08/25 07:48:56;;;;;;;0.00;0.00;;;;;;;16.44;63.65;101427.78;7353174;19;20021;-70
2022/08/25 07:51:21;;;;;;;;;;;;;;;16.60;60.52;101432.44;7358243;19;20484;-69
2022/08/25 07:53:47;;;;;;;0.00;0.00;;;;;;;16.62;62.92;101440.28;7354692;19;19932;-69
2022/08/25 07:56:14;;;;;;;0.00;0.00;;;;;;;16.66;63.09;101436.63;7366845;19;20038;-70
2022/08/25 07:58:40;;;;;;;;;;;;;;;16.80;60.58;101442.28;7361970;19;20031;-69
2022/08/25 08:01:07;;;;;;;0.00;0.00;;;;;;;16.80;62.28;101438.78;7359740;19;19921;-69
2022/08/25 08:03:35;;;;;;;0.00;0.00;;;;;;;16.88;62.33;101449.03;7353542;19;20146;-70
2022/08/25 08:06:06;;;;;;;0.00;0.00;;;;;;;16.96;61.48;101447.00;7356811;19;20022;-69
2022/08/25 08:08:32;;;;;;;0.00;0.00;;;;;;;16.94;61.67;101448.84;7349230;19;20730;-70
2022/08/25 08:10:58;;;;;;;0.00;0.00;;;;;;;16.98;62.33;101453.06;7357210;19;20006;-70
2022/08/25 08:13:25;;;;;;;0.00;0.00;;;;;;;17.00;62.08;101457.38;7359275;19;20014;-69
2022/08/25 08:15:51;;;;;;;0.00;0.00;;;;;;;17.07;62.42;101455.38;7358699;19;20022;-69
2022/08/25 08:18:16;;;;;;;0.00;0.00;;;;;;;16.99;61.94;101438.97;7355626;19;20006;-69
2022/08/25 08:20:43;;;;;;;0.00;0.00;;;;;;;17.20;61.75;101459.28;7359141;19;20039;-69
2022/08/25 08:23:10;;;;;;;0.00;0.00;;;;;;;17.28;61.60;101461.59;7355349;19;20078;-69
2022/08/25 08:25:36;;;;;;;0.03;0.03;;;;;;;17.26;61.26;101448.47;7353815;19;20014;-70
2022/08/25 08:28:01;;;;;;;0.05;0.05;;;;;;;17.37;61.07;101456.81;7358280;19;20520;-69
2022/08/25 08:30:27;;;;;;;0.00;0.00;;;;;;;17.41;60.42;101462.00;7365249;19;20025;-69
2022/08/25 08:32:53;;;;;;;0.00;0.00;;;;;;;17.44;60.13;101456.63;7359341;19;20081;-69
2022/08/25 08:35:19;;;;;;;0.00;0.00;;;;;;;17.45;60.15;101464.47;7357787;19;20007;-70
2022/08/25 08:37:45;;;;;;;0.00;0.00;;;;;;;17.36;60.23;101455.13;7360386;19;20027;-70
2022/08/25 08:40:14;;;;;;;0.00;0.00;;;;;;;17.50;60.16;101477.50;7362266;19;20067;-69
2022/08/25 08:43:11;;;;;;;0.00;0.00;;;;;;;17.49;59.95;101470.50;7360415;19;20021;-69
2022/08/25 08:45:44;;;;;;;0.00;0.00;;;;;;;17.43;59.88;101450.44;7258952;19;2004328;-70
2022/08/25 08:48:38;;;;;;;0.00;0.00;;;;;;;17.58;59.65;101463.03;7362609;19;20014;-69
2022/08/25 08:51:22;;;;;;;0.00;0.00;;;;;;;17.79;59.26;101464.03;7254133;19;2004533;-70
2022/08/25 08:53:55;;;;;;;0.00;0.00;;;;;;;17.90;59.24;101455.66;7359229;19;20014;-69
2022/08/25 08:56:30;;;;;;;0.00;0.00;;;;;;;18.17;59.00;101458.94;7363475;19;20011;-69
2022/08/25 08:59:08;;;;;;;0.00;0.00;;;;;;;18.40;58.55;101460.59;7350115;19;20035;-69
2022/08/25 09:01:45;;;;;;;0.05;0.05;;;;;;;18.54;58.08;101441.47;7353273;19;20037;-70
2022/08/25 09:04:21;;;;;;;0.00;0.00;;;;;;;18.86;57.73;101462.09;7360932;19;20463;-69
2022/08/25 09:06:49;;;;;;;0.00;0.00;;;;;;;18.99;56.96;101448.31;7357752;19;20014;-69
2022/08/25 09:09:26;;;;;;;0.00;0.00;;;;;;;19.31;55.92;101455.63;7355261;19;20014;-69
2022/08/25 09:12:11;;;;;;;0.00;0.00;;;;;;;19.53;55.93;101459.91;7358883;19;20015;-69
2022/08/25 09:15:09;;;;;;;0.00;0.00;;;;;;;19.83;56.04;101454.94;7359859;19;20031;-69
2022/08/25 09:18:11;;;;;;;0.00;0.00;;;;;;;20.12;55.84;101453.44;7259853;19;2004270;-69
2022/08/25 09:20:57;;;;;;;0.00;0.00;;;;;;;20.48;55.09;101461.38;7263960;19;2005533;-69
2022/08/25 09:23:33;;;;;;;0.00;0.00;;;;;;;20.79;53.51;101455.31;7363812;19;20023;-69
2022/08/25 09:26:43;;;;;;;0.00;0.00;;;;;;;21.15;54.82;101452.47;7364800;19;20400;-70
2022/08/25 09:29:14;;;;;;;0.00;0.00;;;;;;;21.30;51.55;101436.63;7253762;19;2004529;-69
2022/08/25 09:31:41;;;;;;;0.00;0.00;;;;;;;21.65;50.98;101446.16;7358789;19;20085;-69
2022/08/25 09:34:12;;;;;;;0.00;0.00;;;;;;;21.96;51.26;101444.38;7360218;19;20010;-70
2022/08/25 09:36:38;;;;;;;0.00;0.00;;;;;;;22.17;49.63;101448.44;7361672;19;20006;-69
2022/08/25 09:39:05;;;;;;;0.00;0.00;;;;;;;22.50;48.79;101450.88;7363492;19;20030;-69
2022/08/25 09:41:42;;;;;;;0.00;0.00;;;;;;;22.94;49.87;101449.13;7361309;19;20014;-69
2022/08/25 09:44:40;;;;;;;0.00;0.00;;;;;;;23.37;51.27;101452.59;7363343;19;20006;-69
2022/08/25 09:47:17;;;;;;;0.10;0.10;;;;;;;23.71;48.60;101445.06;7258131;19;2004553;-69
2022/08/25 09:50:03;;;;;;;0.10;0.10;;;;;;;23.88;44.72;101447.50;7363082;19;20007;-69
2022/08/25 09:52:37;;;;;;;0.00;0.00;;;;;;;24.31;45.69;101444.59;7358654;19;22470;-68
2022/08/25 09:55:05;;;;;;;0.10;0.10;;;;;;;24.61;44.39;101451.47;7357247;19;20010;-66
2022/08/25 09:57:32;;;;;;;0.10;0.10;;;;;;;24.82;41.74;101444.63;7360634;19;20014;-66
2022/08/25 10:00:13;;;;;;;0.10;0.10;;;;;;;25.29;45.91;101437.69;7362595;19;20122;-68
2022/08/25 10:02:41;;;;;;;0.00;0.00;;;;;;;25.43;41.08;101445.56;7362694;19;21115;-66
2022/08/25 10:05:22;;;;;;;0.00;0.00;;;;;;;25.79;44.15;101433.97;7356911;19;20010;-66
2022/08/25 10:07:58;;;;;;;0.05;0.05;;;;;;;26.00;43.84;101434.19;7360259;19;20010;-68
2022/08/25 10:10:29;;;;;;;0.15;0.15;;;;;;;26.26;40.17;101434.88;7363684;19;20018;-68
2022/08/25 10:12:59;;;;;;;0.10;0.10;;;;;;;26.45;40.81;101434.31;7364358;19;20711;-68
2022/08/25 10:15:35;;;;;;;0.00;0.00;;;;;;;26.75;38.36;101432.88;7358308;19;20120;-68
2022/08/25 10:18:25;;;;;;;0.10;0.10;;;;;;;27.33;41.92;101425.56;7362751;19;20040;-68
2022/08/25 10:21:16;;;;;;;0.10;0.10;;;;;;;27.61;41.04;101427.66;7362373;19;20016;-68
2022/08/25 10:23:48;;;;;;;0.00;0.00;;;;;;;27.82;35.84;101421.50;7259444;19;2004376;-69
2022/08/25 10:26:44;;;;;;;0.10;0.10;;;;;;;28.32;40.64;101419.03;7361046;19;20026;-66
2022/08/25 10:29:22;;;;;;;;;;;;;;;28.72;42.57;101426.34;7262277;19;2004465;-66
2022/08/25 10:32:04;;;;;;;0.10;0.10;;;;;;;28.91;37.82;101410.28;7362607;19;19939;-66
2022/08/25 10:34:45;;;;;;;0.00;0.00;;;;;;;29.04;34.33;101410.06;7360617;19;20019;-67
2022/08/25 10:37:13;;;;;;;0.00;0.00;;;;;;;29.32;35.15;101409.28;7363414;19;20007;-66
2022/08/25 10:40:10;;;;;;;0.00;0.00;;;;;;;29.75;36.39;101399.97;7360290;19;20041;-66
2022/08/25 10:42:52;;;;;;;0.10;0.10;;;;;;;30.15;35.30;101407.91;7260645;19;2004358;-66
2022/08/25 10:48:18;;;;;;;0.00;0.00;;;;;;;30.64;34.31;101408.59;7354108;19;20049;-66
2022/08/25 10:50:55;;;;;;;0.00;0.00;;;;;;;30.83;33.29;101402.31;7353030;19;20009;-65
2022/08/25 10:53:35;;;;;;;0.10;0.10;;;;;;;31.13;32.79;101403.00;7355936;19;20039;-66
2022/08/25 10:56:16;;;;;;;0.10;0.10;;;;;;;31.42;32.54;101400.13;7355273;19;20010;-66
2022/08/25 10:58:50;;;;;;;0.10;0.10;;;;;;;31.65;31.61;101390.56;7353375;19;20014;-66
2022/08/25 11:01:30;;;;;;;0.00;0.00;;;;;;;31.94;31.28;101386.78;7354610;19;20007;-66
2022/08/25 11:04:06;;;;;;;0.10;0.10;;;;;;;32.23;30.22;101391.84;7353347;19;20007;-66
2022/08/25 11:06:31;;;;;;;0.10;0.10;;;;;;;32.16;26.22;101396.22;7356113;19;20116;-66
2022/08/25 11:09:02;;;;;;;0.00;0.00;;;;;;;32.11;27.74;101393.97;7353461;19;20857;-66
2022/08/25 11:11:38;;;;;;;0.00;0.00;;;;;;;32.01;28.45;101385.97;7353484;19;20042;-66
2022/08/25 11:14:10;;;;;;;0.00;0.00;;;;;;;32.05;30.22;101389.22;7354360;19;20907;-66
2022/08/25 11:16:46;;;;;;;0.03;0.03;;;;;;;32.18;29.63;101381.53;7357268;19;20448;-64
2022/08/25 11:19:26;;;;;;;0.08;0.08;;;;;;;32.43;28.94;101382.53;7358517;19;20084;-64
2022/08/25 11:22:13;;;;;;;0.10;0.10;;;;;;;32.60;30.05;101367.28;7362302;19;20031;-64
2022/08/25 11:25:02;;;;;;;0.10;0.10;;;;;;;32.80;26.55;101374.09;7355751;19;20138;-64
2022/08/25 11:27:35;;;;;;;0.00;0.00;;;;;;;33.08;26.89;101376.59;7349315;19;20010;-64
2022/08/25 11:30:07;;;;;;;0.00;0.00;;;;;;;33.28;25.97;101369.84;7356844;19;20006;-64
2022/08/25 11:32:34;;;;;;;0.00;0.00;;;;;;;33.42;24.16;101360.25;7356628;19;20034;-64
2022/08/25 11:35:08;;;;;;;0.10;0.10;;;;;;;33.80;26.53;101377.69;7362211;19;20024;-64
2022/08/25 11:38:05;;;;;;;0.10;0.10;;;;;;;34.10;27.45;101375.31;7362440;19;20010;-64
2022/08/25 11:40:56;;;;;;;0.00;0.00;;;;;;;34.42;27.79;101376.25;7262627;19;2004128;-64
2022/08/25 11:43:43;;;;;;;0.03;0.03;;;;;;;34.36;25.35;101377.78;7366700;19;20367;-64
2022/08/25 11:46:27;;;;;;;0.00;0.00;;;;;;;33.95;23.01;101363.47;7365629;19;20011;-64
2022/08/25 11:49:01;;;;;;;0.00;0.00;;;;;;;33.60;24.76;101359.25;7367397;19;20070;-64